sensor_id;sensor_type;location;lat;lon;timestamp;P1;P2;P0
50787;PMS5003;36756;50.846;20.632;2022-08-01T00:00:17;8;8;6
50787;PMS5003;36756;50.846;20.632;2022-08-01T00:07:05;19;16;12
50787;PMS5003;36756;50.846;20.632;2022-08-01T00:14:05;19;16;12
50787;PMS5003;36756;50.846;20.632;2022-08-01T00:21:07;19;16;12
50787;PMS5003;36756;50.846;20.632;2022-08-01T00:28:08;19;16;12
50787;PMS5003;36756;50.846;20.632;2022-08-01T00:35:19;24;20;12
50787;PMS5003;36756;50.846;20.632;2022-08-01T00:42:14;24;20;12
50787;PMS5003;36756;50.846;20.632;2022-08-01T00:49:05;24;20;12
50787;PMS5003;36756;50.846;20.632;2022-08-01T00:56:10;24;20;12
50787;PMS5003;36756;50.846;20.632;2022-08-01T01:00:01;24;20;12
50787;PMS5003;36756;50.846;20.632;2022-08-01T01:14:04;17;16;11
50787;PMS5003;36756;50.846;20.632;2022-08-01T01:35:47;20;16;11
50787;PMS5003;36756;50.846;20.632;2022-08-01T01:42:25;20;16;11
50787;PMS5003;36756;50.846;20.632;2022-08-01T01:49:27;20;16;11
50787;PMS5003;36756;50.846;20.632;2022-08-01T01:56:23;20;16;11
50787;PMS5003;36756;50.846;20.632;2022-08-01T02:00:12;20;16;11
50787;PMS5003;36756;50.846;20.632;2022-08-01T02:07:03;22;19;12
50787;PMS5003;36756;50.846;20.632;2022-08-01T02:14:10;22;19;12
50787;PMS5003;36756;50.846;20.632;2022-08-01T02:21:02;22;19;12
50787;PMS5003;36756;50.846;20.632;2022-08-01T02:28:15;22;19;12
50787;PMS5003;36756;50.846;20.632;2022-08-01T02:35:51;21;18;12
50787;PMS5003;36756;50.846;20.632;2022-08-01T02:42:20;21;18;12
50787;PMS5003;36756;50.846;20.632;2022-08-01T02:49:47;21;18;12
50787;PMS5003;36756;50.846;20.632;2022-08-01T02:56:40;21;18;12
50787;PMS5003;36756;50.846;20.632;2022-08-01T03:00:05;21;18;12
50787;PMS5003;36756;50.846;20.632;2022-08-01T03:07:08;19;17;12
50787;PMS5003;36756;50.846;20.632;2022-08-01T03:14:17;19;17;12
50787;PMS5003;36756;50.846;20.632;2022-08-01T03:21:34;19;17;12
50787;PMS5003;36756;50.846;20.632;2022-08-01T03:28:37;19;17;12
50787;PMS5003;36756;50.846;20.632;2022-08-01T03:35:30;13;12;10
50787;PMS5003;36756;50.846;20.632;2022-08-01T03:42:39;13;12;10
50787;PMS5003;36756;50.846;20.632;2022-08-01T03:49:32;13;12;10
50787;PMS5003;36756;50.846;20.632;2022-08-01T03:56:36;13;12;10
50787;PMS5003;36756;50.846;20.632;2022-08-01T04:00:12;13;12;10
50787;PMS5003;36756;50.846;20.632;2022-08-01T04:07:47;18;17;12
50787;PMS5003;36756;50.846;20.632;2022-08-01T04:14:07;18;17;12
50787;PMS5003;36756;50.846;20.632;2022-08-01T04:21:20;18;17;12
50787;PMS5003;36756;50.846;20.632;2022-08-01T04:28:16;18;17;12
50787;PMS5003;36756;50.846;20.632;2022-08-01T04:42:27;17;16;12
50787;PMS5003;36756;50.846;20.632;2022-08-01T04:49:22;17;16;12
50787;PMS5003;36756;50.846;20.632;2022-08-01T04:56:22;17;16;12
50787;PMS5003;36756;50.846;20.632;2022-08-01T05:00:17;17;16;12
50787;PMS5003;36756;50.846;20.632;2022-08-01T05:07:18;30;26;15
50787;PMS5003;36756;50.846;20.632;2022-08-01T05:14:16;30;26;15
50787;PMS5003;36756;50.846;20.632;2022-08-01T05:21:05;30;26;15
50787;PMS5003;36756;50.846;20.632;2022-08-01T05:28:05;30;26;15
50787;PMS5003;36756;50.846;20.632;2022-08-01T05:35:09;16;16;11
50787;PMS5003;36756;50.846;20.632;2022-08-01T05:42:04;16;16;11
50787;PMS5003;36756;50.846;20.632;2022-08-01T05:49:18;16;16;11
50787;PMS5003;36756;50.846;20.632;2022-08-01T05:56:17;16;16;11
50787;PMS5003;36756;50.846;20.632;2022-08-01T06:00:02;16;16;11
50787;PMS5003;36756;50.846;20.632;2022-08-01T06:07:07;15;14;10
50787;PMS5003;36756;50.846;20.632;2022-08-01T06:14:19;15;14;10
50787;PMS5003;36756;50.846;20.632;2022-08-01T06:21:14;15;14;10
50787;PMS5003;36756;50.846;20.632;2022-08-01T06:28:15;15;14;10
50787;PMS5003;36756;50.846;20.632;2022-08-01T06:35:13;15;12;9
50787;PMS5003;36756;50.846;20.632;2022-08-01T06:42:03;15;12;9
50787;PMS5003;36756;50.846;20.632;2022-08-01T06:49:24;15;12;9
50787;PMS5003;36756;50.846;20.632;2022-08-01T06:56:03;15;12;9
50787;PMS5003;36756;50.846;20.632;2022-08-01T07:00:37;15;12;9
50787;PMS5003;36756;50.846;20.632;2022-08-01T07:14:15;12;11;8
50787;PMS5003;36756;50.846;20.632;2022-08-01T07:21:16;12;11;8
50787;PMS5003;36756;50.846;20.632;2022-08-01T07:28:19;12;11;8
50787;PMS5003;36756;50.846;20.632;2022-08-01T07:42:15;11;11;9
50787;PMS5003;36756;50.846;20.632;2022-08-01T07:49:04;11;11;9
50787;PMS5003;36756;50.846;20.632;2022-08-01T07:56:07;11;11;9
50787;PMS5003;36756;50.846;20.632;2022-08-01T08:00:15;11;11;9
50787;PMS5003;36756;50.846;20.632;2022-08-01T08:14:18;11;10;8
50787;PMS5003;36756;50.846;20.632;2022-08-01T08:21:16;11;10;8
50787;PMS5003;36756;50.846;20.632;2022-08-01T08:28:14;11;10;8
50787;PMS5003;36756;50.846;20.632;2022-08-01T08:35:03;11;10;8
50787;PMS5003;36756;50.846;20.632;2022-08-01T08:42:11;10;9;7
50787;PMS5003;36756;50.846;20.632;2022-08-01T08:49:21;10;9;7
50787;PMS5003;36756;50.846;20.632;2022-08-01T08:56:23;10;9;7
50787;PMS5003;36756;50.846;20.632;2022-08-01T09:00:24;10;9;7
50787;PMS5003;36756;50.846;20.632;2022-08-01T09:14:15;11;10;8
50787;PMS5003;36756;50.846;20.632;2022-08-01T09:21:21;11;10;8
50787;PMS5003;36756;50.846;20.632;2022-08-01T09:28:03;11;10;8
50787;PMS5003;36756;50.846;20.632;2022-08-01T09:35:58;11;10;8
50787;PMS5003;36756;50.846;20.632;2022-08-01T09:42:28;7;7;6
50787;PMS5003;36756;50.846;20.632;2022-08-01T09:49:38;7;7;6
50787;PMS5003;36756;50.846;20.632;2022-08-01T09:56:14;7;7;6
50787;PMS5003;36756;50.846;20.632;2022-08-01T10:00:05;7;7;6
50787;PMS5003;36756;50.846;20.632;2022-08-01T10:14:25;6;6;5
50787;PMS5003;36756;50.846;20.632;2022-08-01T10:21:27;6;6;5
50787;PMS5003;36756;50.846;20.632;2022-08-01T10:28:26;6;6;5
50787;PMS5003;36756;50.846;20.632;2022-08-01T10:35:19;6;6;5
50787;PMS5003;36756;50.846;20.632;2022-08-01T10:42:05;9;8;7
50787;PMS5003;36756;50.846;20.632;2022-08-01T10:50:01;9;8;7
50787;PMS5003;36756;50.846;20.632;2022-08-01T10:56:11;9;8;7
50787;PMS5003;36756;50.846;20.632;2022-08-01T11:00:01;9;8;7
50787;PMS5003;36756;50.846;20.632;2022-08-01T11:07:03;9;8;7
50787;PMS5003;36756;50.846;20.632;2022-08-01T11:14:14;9;9;7
50787;PMS5003;36756;50.846;20.632;2022-08-01T11:21:02;9;9;7
50787;PMS5003;36756;50.846;20.632;2022-08-01T11:28:38;9;9;7
50787;PMS5003;36756;50.846;20.632;2022-08-01T11:35:28;9;9;7
50787;PMS5003;36756;50.846;20.632;2022-08-01T11:42:26;7;7;6
50787;PMS5003;36756;50.846;20.632;2022-08-01T11:49:21;7;7;6
50787;PMS5003;36756;50.846;20.632;2022-08-01T11:56:02;7;7;6
50787;PMS5003;36756;50.846;20.632;2022-08-01T12:00:20;7;7;6
50787;PMS5003;36756;50.846;20.632;2022-08-01T12:07:23;7;7;6
50787;PMS5003;36756;50.846;20.632;2022-08-01T12:14:22;65;52;36
50787;PMS5003;36756;50.846;20.632;2022-08-01T12:21:04;65;52;36
50787;PMS5003;36756;50.846;20.632;2022-08-01T12:28:11;65;52;36
50787;PMS5003;36756;50.846;20.632;2022-08-01T12:35:20;65;52;36
50787;PMS5003;36756;50.846;20.632;2022-08-01T12:42:05;10;8;6
50787;PMS5003;36756;50.846;20.632;2022-08-01T12:49:03;10;8;6
50787;PMS5003;36756;50.846;20.632;2022-08-01T12:56:17;10;8;6
50787;PMS5003;36756;50.846;20.632;2022-08-01T13:00:27;10;8;6
50787;PMS5003;36756;50.846;20.632;2022-08-01T13:07:04;10;8;6
50787;PMS5003;36756;50.846;20.632;2022-08-01T13:14:29;12;11;8
50787;PMS5003;36756;50.846;20.632;2022-08-01T13:21:25;12;11;8
50787;PMS5003;36756;50.846;20.632;2022-08-01T13:28:18;12;11;8
50787;PMS5003;36756;50.846;20.632;2022-08-01T13:35:23;12;11;8
50787;PMS5003;36756;50.846;20.632;2022-08-01T13:49:02;8;8;8
50787;PMS5003;36756;50.846;20.632;2022-08-01T13:56:20;8;8;8
50787;PMS5003;36756;50.846;20.632;2022-08-01T14:00:21;8;8;8
50787;PMS5003;36756;50.846;20.632;2022-08-01T14:07:14;8;8;8
50787;PMS5003;36756;50.846;20.632;2022-08-01T14:21:03;11;11;9
50787;PMS5003;36756;50.846;20.632;2022-08-01T14:28:21;11;11;9
50787;PMS5003;36756;50.846;20.632;2022-08-01T14:35:16;11;11;9
50787;PMS5003;36756;50.846;20.632;2022-08-01T14:49:03;12;11;9
50787;PMS5003;36756;50.846;20.632;2022-08-01T14:56:02;12;11;9
50787;PMS5003;36756;50.846;20.632;2022-08-01T15:00:16;12;11;9
50787;PMS5003;36756;50.846;20.632;2022-08-01T15:07:03;12;11;9
50787;PMS5003;36756;50.846;20.632;2022-08-01T15:21:13;9;9;8
50787;PMS5003;36756;50.846;20.632;2022-08-01T15:28:20;9;9;8
50787;PMS5003;36756;50.846;20.632;2022-08-01T15:35:13;9;9;8
50787;PMS5003;36756;50.846;20.632;2022-08-01T15:49:06;12;11;9
50787;PMS5003;36756;50.846;20.632;2022-08-01T15:56:02;12;11;9
50787;PMS5003;36756;50.846;20.632;2022-08-01T16:00:01;12;11;9
50787;PMS5003;36756;50.846;20.632;2022-08-01T16:07:02;12;11;9
50787;PMS5003;36756;50.846;20.632;2022-08-01T16:21:04;10;9;7
50787;PMS5003;36756;50.846;20.632;2022-08-01T16:28:04;10;9;7
50787;PMS5003;36756;50.846;20.632;2022-08-01T16:35:10;10;9;7
50787;PMS5003;36756;50.846;20.632;2022-08-01T16:49:06;14;13;11
50787;PMS5003;36756;50.846;20.632;2022-08-01T16:56:06;14;13;11
50787;PMS5003;36756;50.846;20.632;2022-08-01T17:00:19;14;13;11
50787;PMS5003;36756;50.846;20.632;2022-08-01T17:07:16;14;13;11
50787;PMS5003;36756;50.846;20.632;2022-08-01T17:21:04;18;17;13
50787;PMS5003;36756;50.846;20.632;2022-08-01T17:28:05;18;17;13
50787;PMS5003;36756;50.846;20.632;2022-08-01T17:35:18;18;17;13
50787;PMS5003;36756;50.846;20.632;2022-08-01T17:49:05;22;21;17
50787;PMS5003;36756;50.846;20.632;2022-08-01T17:56:06;22;21;17
50787;PMS5003;36756;50.846;20.632;2022-08-01T18:00:16;22;21;17
50787;PMS5003;36756;50.846;20.632;2022-08-01T18:07:14;22;21;17
50787;PMS5003;36756;50.846;20.632;2022-08-01T18:21:02;23;23;18
50787;PMS5003;36756;50.846;20.632;2022-08-01T18:28:13;23;23;18
50787;PMS5003;36756;50.846;20.632;2022-08-01T18:35:04;23;23;18
50787;PMS5003;36756;50.846;20.632;2022-08-01T18:49:02;19;16;12
50787;PMS5003;36756;50.846;20.632;2022-08-01T18:56:13;19;16;12
50787;PMS5003;36756;50.846;20.632;2022-08-01T19:00:17;19;16;12
50787;PMS5003;36756;50.846;20.632;2022-08-01T19:07:07;19;16;12
50787;PMS5003;36756;50.846;20.632;2022-08-01T19:21:21;17;16;13
50787;PMS5003;36756;50.846;20.632;2022-08-01T19:28:23;17;16;13
50787;PMS5003;36756;50.846;20.632;2022-08-01T19:35:21;17;16;13
50787;PMS5003;36756;50.846;20.632;2022-08-01T19:42:02;17;16;13
50787;PMS5003;36756;50.846;20.632;2022-08-01T19:49:22;17;15;12
50787;PMS5003;36756;50.846;20.632;2022-08-01T19:56:08;17;15;12
50787;PMS5003;36756;50.846;20.632;2022-08-01T20:00:12;17;15;12
50787;PMS5003;36756;50.846;20.632;2022-08-01T20:07:03;17;15;12
50787;PMS5003;36756;50.846;20.632;2022-08-01T20:21:28;18;17;14
50787;PMS5003;36756;50.846;20.632;2022-08-01T20:28:27;18;17;14
50787;PMS5003;36756;50.846;20.632;2022-08-01T20:35:21;18;17;14
50787;PMS5003;36756;50.846;20.632;2022-08-01T20:42:13;18;17;14
50787;PMS5003;36756;50.846;20.632;2022-08-01T20:49:05;14;14;11
50787;PMS5003;36756;50.846;20.632;2022-08-01T20:56:32;14;14;11
50787;PMS5003;36756;50.846;20.632;2022-08-01T21:00:25;14;14;11
50787;PMS5003;36756;50.846;20.632;2022-08-01T21:07:24;14;14;11
50787;PMS5003;36756;50.846;20.632;2022-08-01T21:21:24;15;15;12
50787;PMS5003;36756;50.846;20.632;2022-08-01T21:28:12;15;15;12
50787;PMS5003;36756;50.846;20.632;2022-08-01T21:35:08;15;15;12
50787;PMS5003;36756;50.846;20.632;2022-08-01T21:42:19;15;15;12
50787;PMS5003;36756;50.846;20.632;2022-08-01T21:49:18;27;25;19
50787;PMS5003;36756;50.846;20.632;2022-08-01T22:00:51;27;25;19
50787;PMS5003;36756;50.846;20.632;2022-08-01T22:07:21;27;25;19
50787;PMS5003;36756;50.846;20.632;2022-08-01T22:14:43;30;29;20
50787;PMS5003;36756;50.846;20.632;2022-08-01T22:21:17;30;29;20
50787;PMS5003;36756;50.846;20.632;2022-08-01T22:28:16;30;29;20
50787;PMS5003;36756;50.846;20.632;2022-08-01T22:35:22;34;30;20
50787;PMS5003;36756;50.846;20.632;2022-08-01T22:42:53;34;30;20
50787;PMS5003;36756;50.846;20.632;2022-08-01T22:56:24;34;30;20
50787;PMS5003;36756;50.846;20.632;2022-08-01T23:07:18;36;33;23
50787;PMS5003;36756;50.846;20.632;2022-08-01T23:14:02;36;33;23
50787;PMS5003;36756;50.846;20.632;2022-08-01T23:21:22;36;33;23
50787;PMS5003;36756;50.846;20.632;2022-08-01T23:28:02;36;33;23
